עמוד ראשי
METAR-TAF:

METAR-TAF

שדות תעופה :

Nadi, פיג'י

קו רוחב: 17-45S, קו אורך: 177-27E, גובה: 13מטר

תצפית מזג אוויר נוכחית

הדו"ח נערך לפני 1 שעות ו 3דקות, בשעה 11:00 UTC
רוח רגועה
טמפרטורת 25 צלסיוס
לחות 83%
לחץ 1014 hPa
ראות 10 קילומטר או יותר
מעט עננים בגובה 3000רגל

METAR: NFFN 151100Z 00000KT 9999 FEW030 25/22 Q1014 NOSIG

זמן: 00:03 (12:03 UTC)

תחזית

הדו"ח נערך לפני 1 שעות ו 0דקות, בשעה 11:03 UTC
תחזית בתוקף מ 15 ב 12 UTC עד 16 ב 12 UTC
רוח 5קשר מכיוון מזרח
ראות 10 קילומטר או יותר
עננים פזורים בגובה 2800רגל
עננים פזורים בגובה 10000רגל
יעשה מ
15 ב 22 UTC עד 15 ב 24 UTC
רוח 10קשר מכיוון מערב/צפון-מערב
יעשה מ
16 ב 04 UTC עד 16 ב 06 UTC
רוח 5קשר מכיוון מזרח

TAF: NFFN 151103Z 1512/1612 09005KT 9999 SCT028 SCT100 BECMG 1522/1524 29010KT BECMG 1604/1606 10005KT

תצפיות ותחזיות מזג אוויר לגבי יותר מ- 4,000 שדות תעופה ברחבי העולם. דוחות METAR ו- TAF.

התחנות הזמינות מסומנות בנקודות צהובות ואדומות על גבי המפה.

העבר את העכבר לנקודה הצבעונית על מנת לראות את שם התחנה.

לאחר מכן, לחץ כדי לראות את תוכן ואת תחזיות מזג האוויר.

כדי לשנות את המפה: לחץ על הכפתורים הירוקים עם הפלוס השחור כדי להתקרב; על הכפתור הירוק עם המקף כדי להתרחק; או בחיצים הירוקים למפות סמוכות.


METAR-TAF: